sensor_id;sensor_type;location;lat;lon;timestamp;pressure;altitude;pressure_sealevel;temperature;humidity
740;BME280;354;42.694;23.336;2023-04-08T00:01:27;95347.38;;;6.04;100.00
740;BME280;354;42.694;23.336;2023-04-08T00:03:53;95364.22;;;6.16;100.00
740;BME280;354;42.694;23.336;2023-04-08T00:06:18;95358.28;;;6.07;100.00
740;BME280;354;42.694;23.336;2023-04-08T00:08:44;95363.44;;;6.16;100.00
740;BME280;354;42.694;23.336;2023-04-08T00:11:09;95366.03;;;6.16;100.00
740;BME280;354;42.694;23.336;2023-04-08T00:13:35;95364.69;;;6.05;100.00
740;BME280;354;42.694;23.336;2023-04-08T00:16:00;95343.69;;;5.98;100.00
740;BME280;354;42.694;23.336;2023-04-08T00:18:26;95362.16;;;6.12;100.00
740;BME280;354;42.694;23.336;2023-04-08T00:20:52;95357.38;;;6.15;100.00
740;BME280;354;42.694;23.336;2023-04-08T00:23:17;95347.84;;;6.07;100.00
740;BME280;354;42.694;23.336;2023-04-08T00:25:44;95355.66;;;6.22;100.00
740;BME280;354;42.694;23.336;2023-04-08T00:28:09;95357.22;;;6.17;100.00
740;BME280;354;42.694;23.336;2023-04-08T00:30:35;95355.84;;;6.21;100.00
740;BME280;354;42.694;23.336;2023-04-08T00:33:00;95365.75;;;6.25;100.00
740;BME280;354;42.694;23.336;2023-04-08T00:35:26;95365.13;;;6.23;100.00
740;BME280;354;42.694;23.336;2023-04-08T00:37:51;95364.22;;;6.01;100.00
740;BME280;354;42.694;23.336;2023-04-08T00:40:16;95369.78;;;5.98;100.00
740;BME280;354;42.694;23.336;2023-04-08T00:42:42;95364.31;;;6.08;100.00
740;BME280;354;42.694;23.336;2023-04-08T00:45:08;95363.69;;;6.06;100.00
740;BME280;354;42.694;23.336;2023-04-08T00:47:35;95365.91;;;6.09;100.00
740;BME280;354;42.694;23.336;2023-04-08T00:50:01;95358.91;;;5.95;100.00
740;BME280;354;42.694;23.336;2023-04-08T00:52:26;95370.34;;;5.94;100.00
740;BME280;354;42.694;23.336;2023-04-08T00:54:51;95373.22;;;5.99;100.00
740;BME280;354;42.694;23.336;2023-04-08T00:57:17;95352.47;;;5.82;100.00
740;BME280;354;42.694;23.336;2023-04-08T00:59:42;95368.03;;;5.91;100.00
740;BME280;354;42.694;23.336;2023-04-08T01:02:18;95380.63;;;5.72;100.00
740;BME280;354;42.694;23.336;2023-04-08T01:05:05;95378.44;;;5.61;100.00
740;BME280;354;42.694;23.336;2023-04-08T01:07:35;95378.22;;;5.48;100.00
740;BME280;354;42.694;23.336;2023-04-08T01:10:05;95368.19;;;5.37;100.00
740;BME280;354;42.694;23.336;2023-04-08T01:12:36;95366.47;;;5.29;100.00
740;BME280;354;42.694;23.336;2023-04-08T01:15:06;95376.69;;;5.53;100.00
740;BME280;354;42.694;23.336;2023-04-08T01:17:33;95375.78;;;5.46;100.00
740;BME280;354;42.694;23.336;2023-04-08T01:20:02;95384.47;;;5.62;100.00
740;BME280;354;42.694;23.336;2023-04-08T01:25:33;95373.84;;;5.63;100.00
740;BME280;354;42.694;23.336;2023-04-08T01:28:00;95377.72;;;5.67;100.00
740;BME280;354;42.694;23.336;2023-04-08T01:30:28;95379.19;;;5.85;100.00
740;BME280;354;42.694;23.336;2023-04-08T01:32:55;95372.66;;;5.89;100.00
740;BME280;354;42.694;23.336;2023-04-08T01:35:22;95380.78;;;5.94;100.00
740;BME280;354;42.694;23.336;2023-04-08T01:37:49;95365.59;;;5.74;100.00
740;BME280;354;42.694;23.336;2023-04-08T01:40:16;95372.94;;;5.71;100.00
740;BME280;354;42.694;23.336;2023-04-08T01:42:44;95374.03;;;5.76;100.00
740;BME280;354;42.694;23.336;2023-04-08T01:45:10;95380.19;;;5.84;100.00
740;BME280;354;42.694;23.336;2023-04-08T01:47:37;95386.84;;;5.86;100.00
740;BME280;354;42.694;23.336;2023-04-08T01:50:04;95375.06;;;5.90;100.00
740;BME280;354;42.694;23.336;2023-04-08T01:52:31;95376.38;;;5.94;100.00
740;BME280;354;42.694;23.336;2023-04-08T01:54:58;95371.72;;;6.04;100.00
740;BME280;354;42.694;23.336;2023-04-08T01:57:27;95375.28;;;6.03;100.00
740;BME280;354;42.694;23.336;2023-04-08T02:00:05;95387.38;;;5.81;100.00
740;BME280;354;42.694;23.336;2023-04-08T02:02:32;95388.09;;;5.75;100.00
740;BME280;354;42.694;23.336;2023-04-08T02:05:03;95393.84;;;5.94;100.00
740;BME280;354;42.694;23.336;2023-04-08T02:07:28;95392.84;;;5.95;100.00
740;BME280;354;42.694;23.336;2023-04-08T02:09:55;95404.94;;;5.88;100.00
740;BME280;354;42.694;23.336;2023-04-08T02:12:20;95405.84;;;5.80;100.00
740;BME280;354;42.694;23.336;2023-04-08T02:14:46;95404.41;;;5.77;100.00
740;BME280;354;42.694;23.336;2023-04-08T02:17:37;95399.50;;;5.97;100.00
740;BME280;354;42.694;23.336;2023-04-08T02:20:05;95409.41;;;6.02;100.00
740;BME280;354;42.694;23.336;2023-04-08T02:25:00;95407.00;;;5.77;100.00
740;BME280;354;42.694;23.336;2023-04-08T02:27:28;95402.50;;;5.86;100.00
740;BME280;354;42.694;23.336;2023-04-08T02:29:55;95402.31;;;5.88;100.00
740;BME280;354;42.694;23.336;2023-04-08T02:32:22;95408.72;;;5.85;100.00
740;BME280;354;42.694;23.336;2023-04-08T02:34:49;95406.00;;;5.78;100.00
740;BME280;354;42.694;23.336;2023-04-08T02:37:15;95407.81;;;5.78;100.00
740;BME280;354;42.694;23.336;2023-04-08T02:39:40;95397.72;;;5.75;100.00
740;BME280;354;42.694;23.336;2023-04-08T02:42:06;95401.94;;;5.76;100.00
740;BME280;354;42.694;23.336;2023-04-08T02:44:31;95399.94;;;5.63;100.00
740;BME280;354;42.694;23.336;2023-04-08T02:46:57;95400.50;;;5.73;100.00
740;BME280;354;42.694;23.336;2023-04-08T02:49:22;95409.75;;;5.61;100.00
740;BME280;354;42.694;23.336;2023-04-08T02:51:47;95406.38;;;5.52;100.00
740;BME280;354;42.694;23.336;2023-04-08T02:54:13;95388.66;;;5.48;100.00
740;BME280;354;42.694;23.336;2023-04-08T02:56:38;95394.09;;;5.38;100.00
740;BME280;354;42.694;23.336;2023-04-08T02:59:03;95385.53;;;5.29;100.00
740;BME280;354;42.694;23.336;2023-04-08T03:01:29;95394.56;;;5.42;100.00
740;BME280;354;42.694;23.336;2023-04-08T03:03:55;95405.81;;;5.42;100.00
740;BME280;354;42.694;23.336;2023-04-08T03:06:20;95402.88;;;5.45;100.00
740;BME280;354;42.694;23.336;2023-04-08T03:08:46;95410.91;;;5.59;100.00
740;BME280;354;42.694;23.336;2023-04-08T03:11:11;95407.44;;;5.66;100.00
740;BME280;354;42.694;23.336;2023-04-08T03:13:36;95381.91;;;5.53;100.00
740;BME280;354;42.694;23.336;2023-04-08T03:16:02;95386.69;;;5.50;100.00
740;BME280;354;42.694;23.336;2023-04-08T03:18:27;95397.25;;;5.71;100.00
740;BME280;354;42.694;23.336;2023-04-08T03:20:52;95395.00;;;5.68;100.00
740;BME280;354;42.694;23.336;2023-04-08T03:23:18;95398.75;;;5.66;100.00
740;BME280;354;42.694;23.336;2023-04-08T03:25:43;95391.19;;;5.56;100.00
740;BME280;354;42.694;23.336;2023-04-08T03:28:08;95407.91;;;5.47;100.00
740;BME280;354;42.694;23.336;2023-04-08T03:30:34;95394.34;;;5.28;100.00
740;BME280;354;42.694;23.336;2023-04-08T03:33:00;95405.88;;;5.57;100.00
740;BME280;354;42.694;23.336;2023-04-08T03:35:26;95408.47;;;5.57;100.00
740;BME280;354;42.694;23.336;2023-04-08T03:37:52;95409.41;;;5.41;100.00
740;BME280;354;42.694;23.336;2023-04-08T03:40:19;95387.25;;;5.37;100.00
740;BME280;354;42.694;23.336;2023-04-08T03:42:44;95405.53;;;5.37;100.00
740;BME280;354;42.694;23.336;2023-04-08T03:45:10;95416.84;;;5.29;100.00
740;BME280;354;42.694;23.336;2023-04-08T03:47:35;95406.03;;;5.33;100.00
740;BME280;354;42.694;23.336;2023-04-08T03:50:00;95416.44;;;5.41;100.00
740;BME280;354;42.694;23.336;2023-04-08T03:52:26;95409.63;;;5.32;100.00
740;BME280;354;42.694;23.336;2023-04-08T03:54:51;95414.50;;;5.35;100.00
740;BME280;354;42.694;23.336;2023-04-08T03:57:16;95406.09;;;5.24;100.00
740;BME280;354;42.694;23.336;2023-04-08T03:59:42;95410.00;;;5.28;100.00
740;BME280;354;42.694;23.336;2023-04-08T04:02:07;95398.78;;;5.43;100.00
740;BME280;354;42.694;23.336;2023-04-08T04:04:32;95385.66;;;5.36;100.00
740;BME280;354;42.694;23.336;2023-04-08T04:06:58;95398.16;;;5.41;100.00
740;BME280;354;42.694;23.336;2023-04-08T04:09:23;95393.19;;;5.31;100.00
740;BME280;354;42.694;23.336;2023-04-08T04:11:49;95400.56;;;5.27;100.00
740;BME280;354;42.694;23.336;2023-04-08T04:14:15;95385.34;;;5.31;100.00
740;BME280;354;42.694;23.336;2023-04-08T04:16:40;95407.09;;;5.46;100.00
740;BME280;354;42.694;23.336;2023-04-08T04:19:05;95387.97;;;5.31;100.00
740;BME280;354;42.694;23.336;2023-04-08T04:21:31;95418.00;;;5.50;100.00
740;BME280;354;42.694;23.336;2023-04-08T04:23:56;95419.81;;;5.49;100.00
740;BME280;354;42.694;23.336;2023-04-08T04:26:21;95404.97;;;5.50;100.00
740;BME280;354;42.694;23.336;2023-04-08T04:28:47;95424.06;;;5.65;100.00
740;BME280;354;42.694;23.336;2023-04-08T04:31:20;95423.91;;;5.67;100.00
740;BME280;354;42.694;23.336;2023-04-08T04:33:46;95405.34;;;5.62;100.00
740;BME280;354;42.694;23.336;2023-04-08T04:36:12;95428.19;;;5.82;100.00
740;BME280;354;42.694;23.336;2023-04-08T04:38:37;95415.88;;;5.68;100.00
740;BME280;354;42.694;23.336;2023-04-08T04:41:03;95416.97;;;5.74;100.00
740;BME280;354;42.694;23.336;2023-04-08T04:43:28;95424.19;;;5.72;100.00
740;BME280;354;42.694;23.336;2023-04-08T04:45:54;95417.72;;;5.82;100.00
740;BME280;354;42.694;23.336;2023-04-08T04:48:21;95421.31;;;5.81;100.00
740;BME280;354;42.694;23.336;2023-04-08T04:50:54;95410.88;;;5.81;100.00
740;BME280;354;42.694;23.336;2023-04-08T04:53:20;95413.03;;;6.01;100.00
740;BME280;354;42.694;23.336;2023-04-08T04:55:45;95413.34;;;5.98;100.00
740;BME280;354;42.694;23.336;2023-04-08T04:58:11;95414.63;;;6.02;100.00
740;BME280;354;42.694;23.336;2023-04-08T05:00:36;95422.22;;;6.12;100.00
740;BME280;354;42.694;23.336;2023-04-08T05:03:01;95426.09;;;6.30;100.00
740;BME280;354;42.694;23.336;2023-04-08T05:05:27;95425.03;;;6.40;100.00
740;BME280;354;42.694;23.336;2023-04-08T05:07:52;95428.63;;;6.39;100.00
740;BME280;354;42.694;23.336;2023-04-08T05:10:18;95411.59;;;6.28;100.00
740;BME280;354;42.694;23.336;2023-04-08T05:12:43;95427.53;;;6.63;100.00
740;BME280;354;42.694;23.336;2023-04-08T05:15:09;95408.16;;;6.57;100.00
740;BME280;354;42.694;23.336;2023-04-08T05:17:34;95423.91;;;6.78;100.00
740;BME280;354;42.694;23.336;2023-04-08T05:20:00;95415.47;;;6.76;100.00
740;BME280;354;42.694;23.336;2023-04-08T05:22:25;95423.53;;;6.96;100.00
740;BME280;354;42.694;23.336;2023-04-08T05:24:50;95421.75;;;7.18;100.00
740;BME280;354;42.694;23.336;2023-04-08T05:27:16;95430.34;;;7.12;100.00
740;BME280;354;42.694;23.336;2023-04-08T05:29:41;95430.13;;;7.28;100.00
740;BME280;354;42.694;23.336;2023-04-08T05:32:07;95425.34;;;7.32;100.00
740;BME280;354;42.694;23.336;2023-04-08T05:34:32;95425.91;;;7.49;100.00
740;BME280;354;42.694;23.336;2023-04-08T05:36:57;95431.91;;;7.64;100.00
740;BME280;354;42.694;23.336;2023-04-08T05:39:23;95432.63;;;7.79;100.00
740;BME280;354;42.694;23.336;2023-04-08T05:41:48;95434.09;;;7.88;100.00
740;BME280;354;42.694;23.336;2023-04-08T05:44:13;95423.03;;;7.86;100.00
740;BME280;354;42.694;23.336;2023-04-08T05:46:39;95429.94;;;8.22;100.00
740;BME280;354;42.694;23.336;2023-04-08T05:49:05;95417.56;;;8.37;100.00
740;BME280;354;42.694;23.336;2023-04-08T05:51:30;95418.63;;;8.50;100.00
740;BME280;354;42.694;23.336;2023-04-08T05:53:56;95420.31;;;8.57;100.00
740;BME280;354;42.694;23.336;2023-04-08T05:56:21;95428.44;;;8.69;100.00
740;BME280;354;42.694;23.336;2023-04-08T05:58:46;95420.03;;;8.80;100.00
740;BME280;354;42.694;23.336;2023-04-08T06:01:12;95429.25;;;8.69;100.00
740;BME280;354;42.694;23.336;2023-04-08T06:03:37;95414.38;;;8.83;100.00
740;BME280;354;42.694;23.336;2023-04-08T06:06:03;95412.38;;;8.85;100.00
740;BME280;354;42.694;23.336;2023-04-08T06:08:33;95413.66;;;9.09;100.00
740;BME280;354;42.694;23.336;2023-04-08T06:10:58;95406.34;;;8.91;100.00
740;BME280;354;42.694;23.336;2023-04-08T06:13:23;95416.19;;;8.89;100.00
740;BME280;354;42.694;23.336;2023-04-08T06:15:49;95411.41;;;9.06;100.00
740;BME280;354;42.694;23.336;2023-04-08T06:18:16;95406.94;;;8.93;100.00
740;BME280;354;42.694;23.336;2023-04-08T06:20:41;95412.84;;;9.02;100.00
740;BME280;354;42.694;23.336;2023-04-08T06:23:07;95413.75;;;9.29;100.00
740;BME280;354;42.694;23.336;2023-04-08T06:25:32;95414.22;;;9.79;100.00
740;BME280;354;42.694;23.336;2023-04-08T06:27:58;95419.66;;;10.11;100.00
740;BME280;354;42.694;23.336;2023-04-08T06:30:23;95421.69;;;10.02;100.00
740;BME280;354;42.694;23.336;2023-04-08T06:32:48;95425.31;;;10.14;100.00
740;BME280;354;42.694;23.336;2023-04-08T06:35:14;95419.84;;;10.49;100.00
740;BME280;354;42.694;23.336;2023-04-08T06:37:40;95404.72;;;10.31;100.00
740;BME280;354;42.694;23.336;2023-04-08T06:40:05;95426.28;;;10.60;100.00
740;BME280;354;42.694;23.336;2023-04-08T06:42:31;95423.88;;;10.71;100.00
740;BME280;354;42.694;23.336;2023-04-08T06:44:56;95421.19;;;10.85;100.00
740;BME280;354;42.694;23.336;2023-04-08T06:47:22;95420.94;;;10.99;100.00
740;BME280;354;42.694;23.336;2023-04-08T06:49:48;95416.31;;;10.81;100.00
740;BME280;354;42.694;23.336;2023-04-08T06:52:13;95426.00;;;10.94;100.00
740;BME280;354;42.694;23.336;2023-04-08T06:54:39;95419.34;;;10.85;100.00
740;BME280;354;42.694;23.336;2023-04-08T06:57:05;95427.38;;;11.03;100.00
740;BME280;354;42.694;23.336;2023-04-08T06:59:30;95417.81;;;11.16;100.00
740;BME280;354;42.694;23.336;2023-04-08T07:01:55;95418.78;;;11.28;100.00
740;BME280;354;42.694;23.336;2023-04-08T07:04:21;95424.56;;;11.43;100.00
740;BME280;354;42.694;23.336;2023-04-08T07:06:46;95429.19;;;11.48;100.00
740;BME280;354;42.694;23.336;2023-04-08T07:09:11;95425.91;;;11.21;100.00
740;BME280;354;42.694;23.336;2023-04-08T07:11:37;95410.22;;;11.39;100.00
740;BME280;354;42.694;23.336;2023-04-08T07:14:02;95433.28;;;11.44;100.00
740;BME280;354;42.694;23.336;2023-04-08T07:16:27;95431.97;;;11.59;100.00
740;BME280;354;42.694;23.336;2023-04-08T07:18:53;95424.25;;;11.26;100.00
740;BME280;354;42.694;23.336;2023-04-08T07:21:18;95433.47;;;11.42;100.00
740;BME280;354;42.694;23.336;2023-04-08T07:23:44;95436.47;;;11.52;100.00
740;BME280;354;42.694;23.336;2023-04-08T07:26:09;95438.28;;;11.52;100.00
740;BME280;354;42.694;23.336;2023-04-08T07:28:34;95443.78;;;11.50;100.00
740;BME280;354;42.694;23.336;2023-04-08T07:31:16;95438.88;;;11.16;100.00
740;BME280;354;42.694;23.336;2023-04-08T07:33:43;95441.81;;;11.39;100.00
740;BME280;354;42.694;23.336;2023-04-08T07:36:10;95441.38;;;11.49;100.00
740;BME280;354;42.694;23.336;2023-04-08T07:38:37;95442.44;;;11.34;100.00
740;BME280;354;42.694;23.336;2023-04-08T07:41:02;95449.03;;;11.50;100.00
740;BME280;354;42.694;23.336;2023-04-08T07:43:30;95429.19;;;11.79;100.00
740;BME280;354;42.694;23.336;2023-04-08T07:45:59;95454.66;;;12.49;99.75
740;BME280;354;42.694;23.336;2023-04-08T07:48:27;95453.28;;;12.64;96.50
740;BME280;354;42.694;23.336;2023-04-08T07:50:52;95457.66;;;12.52;97.58
740;BME280;354;42.694;23.336;2023-04-08T07:53:17;95454.78;;;12.97;96.75
740;BME280;354;42.694;23.336;2023-04-08T07:55:43;95459.19;;;13.22;94.46
740;BME280;354;42.694;23.336;2023-04-08T07:58:08;95462.59;;;13.40;90.45
740;BME280;354;42.694;23.336;2023-04-08T08:00:33;95440.75;;;13.52;90.36
740;BME280;354;42.694;23.336;2023-04-08T08:02:59;95466.50;;;13.98;87.60
740;BME280;354;42.694;23.336;2023-04-08T08:05:24;95463.41;;;13.59;88.28
740;BME280;354;42.694;23.336;2023-04-08T08:07:50;95463.03;;;13.86;87.71
740;BME280;354;42.694;23.336;2023-04-08T08:10:15;95458.81;;;13.66;86.16
740;BME280;354;42.694;23.336;2023-04-08T08:12:41;95456.84;;;13.62;86.47
740;BME280;354;42.694;23.336;2023-04-08T08:15:07;95470.19;;;13.67;85.63
740;BME280;354;42.694;23.336;2023-04-08T08:17:32;95466.03;;;13.59;85.92
740;BME280;354;42.694;23.336;2023-04-08T08:19:58;95469.94;;;13.20;88.34
740;BME280;354;42.694;23.336;2023-04-08T08:22:24;95468.94;;;13.21;87.16
740;BME280;354;42.694;23.336;2023-04-08T08:24:57;95433.34;;;13.24;87.66
740;BME280;354;42.694;23.336;2023-04-08T08:27:23;95468.50;;;13.73;86.33
740;BME280;354;42.694;23.336;2023-04-08T08:29:48;95468.22;;;13.92;85.40
740;BME280;354;42.694;23.336;2023-04-08T08:32:13;95469.13;;;13.86;83.75
740;BME280;354;42.694;23.336;2023-04-08T08:34:39;95473.53;;;13.44;83.55
740;BME280;354;42.694;23.336;2023-04-08T08:37:04;95478.47;;;13.04;86.32
740;BME280;354;42.694;23.336;2023-04-08T08:39:30;95481.28;;;12.65;86.99
740;BME280;354;42.694;23.336;2023-04-08T08:41:55;95475.13;;;12.90;87.62
740;BME280;354;42.694;23.336;2023-04-08T08:44:21;95470.03;;;13.13;87.27
740;BME280;354;42.694;23.336;2023-04-08T08:46:47;95463.72;;;13.33;88.93
740;BME280;354;42.694;23.336;2023-04-08T08:49:13;95474.59;;;13.25;85.88
740;BME280;354;42.694;23.336;2023-04-08T08:51:39;95471.50;;;13.28;87.25
740;BME280;354;42.694;23.336;2023-04-08T08:54:06;95466.69;;;13.25;86.53
740;BME280;354;42.694;23.336;2023-04-08T08:56:32;95459.34;;;13.27;88.34
740;BME280;354;42.694;23.336;2023-04-08T08:58:58;95472.00;;;13.18;86.41
740;BME280;354;42.694;23.336;2023-04-08T09:04:12;95457.03;;;12.93;88.13
740;BME280;354;42.694;23.336;2023-04-08T09:06:39;95450.56;;;12.71;88.63
740;BME280;354;42.694;23.336;2023-04-08T09:09:05;95484.41;;;12.81;89.83
740;BME280;354;42.694;23.336;2023-04-08T09:11:35;95480.31;;;13.03;90.83
740;BME280;354;42.694;23.336;2023-04-08T09:14:01;95473.25;;;13.15;88.33
740;BME280;354;42.694;23.336;2023-04-08T09:16:26;95475.41;;;13.25;88.34
740;BME280;354;42.694;23.336;2023-04-08T09:18:53;95479.72;;;13.38;89.30
740;BME280;354;42.694;23.336;2023-04-08T09:21:21;95477.97;;;13.80;86.99
740;BME280;354;42.694;23.336;2023-04-08T09:23:50;95474.47;;;14.63;82.98
740;BME280;354;42.694;23.336;2023-04-08T09:26:21;95475.94;;;14.71;82.06
740;BME280;354;42.694;23.336;2023-04-08T09:29:00;95476.31;;;14.51;82.41
740;BME280;354;42.694;23.336;2023-04-08T09:31:28;95481.81;;;14.61;83.30
740;BME280;354;42.694;23.336;2023-04-08T09:33:55;95443.09;;;14.37;82.39
740;BME280;354;42.694;23.336;2023-04-08T09:36:21;95461.91;;;14.59;81.79
740;BME280;354;42.694;23.336;2023-04-08T09:38:47;95459.94;;;14.54;78.42
740;BME280;354;42.694;23.336;2023-04-08T09:41:15;95457.13;;;14.26;79.84
740;BME280;354;42.694;23.336;2023-04-08T09:43:43;95462.66;;;13.82;82.47
740;BME280;354;42.694;23.336;2023-04-08T09:46:14;95457.22;;;13.65;83.21
740;BME280;354;42.694;23.336;2023-04-08T09:48:44;95451.09;;;13.35;83.59
740;BME280;354;42.694;23.336;2023-04-08T09:51:14;95451.97;;;13.29;86.57
740;BME280;354;42.694;23.336;2023-04-08T09:53:45;95449.19;;;13.24;88.90
740;BME280;354;42.694;23.336;2023-04-08T09:56:12;95435.25;;;13.16;86.80
740;BME280;354;42.694;23.336;2023-04-08T09:58:41;95440.13;;;13.50;87.57
740;BME280;354;42.694;23.336;2023-04-08T10:01:13;95462.19;;;13.74;84.67
740;BME280;354;42.694;23.336;2023-04-08T10:03:39;95433.63;;;13.34;82.43
740;BME280;354;42.694;23.336;2023-04-08T10:06:10;95434.16;;;13.06;86.57
740;BME280;354;42.694;23.336;2023-04-08T10:08:36;95439.66;;;12.86;86.59
740;BME280;354;42.694;23.336;2023-04-08T10:11:02;95442.28;;;12.68;87.49
740;BME280;354;42.694;23.336;2023-04-08T10:13:27;95447.47;;;12.56;87.78
740;BME280;354;42.694;23.336;2023-04-08T10:18:41;95415.91;;;12.86;85.98
740;BME280;354;42.694;23.336;2023-04-08T10:21:33;95438.34;;;13.32;84.84
740;BME280;354;42.694;23.336;2023-04-08T10:24:01;95428.34;;;13.34;83.90
740;BME280;354;42.694;23.336;2023-04-08T10:26:44;95422.94;;;13.29;85.94
740;BME280;354;42.694;23.336;2023-04-08T10:31:53;95431.69;;;13.59;85.77
740;BME280;354;42.694;23.336;2023-04-08T10:34:22;95420.25;;;13.89;83.46
740;BME280;354;42.694;23.336;2023-04-08T10:36:52;95411.41;;;13.95;83.48
740;BME280;354;42.694;23.336;2023-04-08T10:39:19;95405.94;;;14.08;82.28
740;BME280;354;42.694;23.336;2023-04-08T10:41:47;95422.19;;;14.35;77.85
740;BME280;354;42.694;23.336;2023-04-08T10:44:24;95421.28;;;14.53;78.34
740;BME280;354;42.694;23.336;2023-04-08T10:46:51;95413.63;;;15.03;77.71
740;BME280;354;42.694;23.336;2023-04-08T10:49:17;95404.72;;;15.10;76.21
740;BME280;354;42.694;23.336;2023-04-08T10:51:44;95410.13;;;15.15;74.49
740;BME280;354;42.694;23.336;2023-04-08T10:54:12;95406.84;;;15.36;75.38
740;BME280;354;42.694;23.336;2023-04-08T10:56:46;95400.19;;;15.34;73.97
740;BME280;354;42.694;23.336;2023-04-08T10:59:13;95397.41;;;15.00;73.98
740;BME280;354;42.694;23.336;2023-04-08T11:01:45;95395.59;;;14.77;75.11
740;BME280;354;42.694;23.336;2023-04-08T11:04:17;95379.84;;;14.70;74.67
740;BME280;354;42.694;23.336;2023-04-08T11:06:44;95383.16;;;14.89;75.68
740;BME280;354;42.694;23.336;2023-04-08T11:09:11;95377.25;;;14.87;74.45
740;BME280;354;42.694;23.336;2023-04-08T11:11:36;95378.56;;;14.73;74.07
740;BME280;354;42.694;23.336;2023-04-08T11:14:02;95366.63;;;14.59;74.15
740;BME280;354;42.694;23.336;2023-04-08T11:16:28;95380.31;;;14.67;74.26
740;BME280;354;42.694;23.336;2023-04-08T11:18:54;95372.88;;;14.93;72.93
740;BME280;354;42.694;23.336;2023-04-08T11:21:23;95380.81;;;15.33;70.87
740;BME280;354;42.694;23.336;2023-04-08T11:23:50;95378.34;;;15.43;71.40
740;BME280;354;42.694;23.336;2023-04-08T11:26:18;95379.25;;;15.20;73.55
740;BME280;354;42.694;23.336;2023-04-08T11:28:45;95375.00;;;15.19;74.96
740;BME280;354;42.694;23.336;2023-04-08T11:31:13;95368.34;;;15.62;73.77
740;BME280;354;42.694;23.336;2023-04-08T11:33:46;95358.84;;;15.49;69.89
740;BME280;354;42.694;23.336;2023-04-08T11:36:12;95353.44;;;15.27;66.86
740;BME280;354;42.694;23.336;2023-04-08T11:38:38;95350.53;;;15.00;67.76
740;BME280;354;42.694;23.336;2023-04-08T11:41:05;95356.13;;;15.04;66.92
740;BME280;354;42.694;23.336;2023-04-08T11:43:31;95356.84;;;15.11;68.13
740;BME280;354;42.694;23.336;2023-04-08T11:45:56;95344.44;;;15.28;67.58
740;BME280;354;42.694;23.336;2023-04-08T11:48:22;95348.78;;;15.35;66.89
740;BME280;354;42.694;23.336;2023-04-08T11:51:01;95343.06;;;15.43;67.54
740;BME280;354;42.694;23.336;2023-04-08T11:53:27;95336.41;;;15.86;65.33
740;BME280;354;42.694;23.336;2023-04-08T11:55:54;95340.66;;;16.03;65.37
740;BME280;354;42.694;23.336;2023-04-08T11:58:20;95341.41;;;16.16;64.19
740;BME280;354;42.694;23.336;2023-04-08T12:00:46;95337.28;;;16.08;62.84
740;BME280;354;42.694;23.336;2023-04-08T12:03:13;95325.84;;;15.57;63.15
740;BME280;354;42.694;23.336;2023-04-08T12:05:39;95323.97;;;15.41;61.58
740;BME280;354;42.694;23.336;2023-04-08T12:08:04;95334.16;;;15.49;61.95
740;BME280;354;42.694;23.336;2023-04-08T12:10:30;95320.13;;;15.48;62.64
740;BME280;354;42.694;23.336;2023-04-08T12:12:56;95314.31;;;15.63;62.68
740;BME280;354;42.694;23.336;2023-04-08T12:15:21;95317.50;;;15.65;63.24
740;BME280;354;42.694;23.336;2023-04-08T12:17:46;95324.44;;;15.66;63.07
740;BME280;354;42.694;23.336;2023-04-08T12:20:12;95312.97;;;15.49;63.88
740;BME280;354;42.694;23.336;2023-04-08T12:22:38;95313.50;;;15.63;62.71
740;BME280;354;42.694;23.336;2023-04-08T12:25:04;95316.09;;;15.46;62.37
740;BME280;354;42.694;23.336;2023-04-08T12:27:30;95314.09;;;15.53;63.21
740;BME280;354;42.694;23.336;2023-04-08T12:29:59;95324.63;;;15.48;61.94
740;BME280;354;42.694;23.336;2023-04-08T12:32:25;95315.84;;;15.31;61.89
740;BME280;354;42.694;23.336;2023-04-08T12:34:51;95320.44;;;15.35;64.03
740;BME280;354;42.694;23.336;2023-04-08T12:37:16;95312.94;;;15.32;63.31
740;BME280;354;42.694;23.336;2023-04-08T12:39:42;95306.59;;;15.16;61.57
740;BME280;354;42.694;23.336;2023-04-08T12:42:07;95297.16;;;15.09;62.43
740;BME280;354;42.694;23.336;2023-04-08T12:44:32;95293.28;;;14.99;63.79
740;BME280;354;42.694;23.336;2023-04-08T12:46:58;95297.97;;;15.09;63.82
740;BME280;354;42.694;23.336;2023-04-08T12:49:24;95301.03;;;15.18;64.25
740;BME280;354;42.694;23.336;2023-04-08T12:51:50;95301.75;;;14.85;64.38
740;BME280;354;42.694;23.336;2023-04-08T12:54:16;95285.47;;;14.64;66.25
740;BME280;354;42.694;23.336;2023-04-08T12:56:41;95309.03;;;14.66;68.04
740;BME280;354;42.694;23.336;2023-04-08T12:59:10;95309.78;;;14.49;69.45
740;BME280;354;42.694;23.336;2023-04-08T13:01:36;95307.56;;;14.46;71.17
740;BME280;354;42.694;23.336;2023-04-08T13:04:01;95314.03;;;14.15;71.91
740;BME280;354;42.694;23.336;2023-04-08T13:06:27;95329.47;;;14.18;71.16
740;BME280;354;42.694;23.336;2023-04-08T13:08:53;95326.59;;;13.85;71.67
740;BME280;354;42.694;23.336;2023-04-08T13:11:18;95321.25;;;13.73;72.33
740;BME280;354;42.694;23.336;2023-04-08T13:13:44;95324.94;;;13.72;73.19
740;BME280;354;42.694;23.336;2023-04-08T13:16:11;95326.09;;;13.64;73.59
740;BME280;354;42.694;23.336;2023-04-08T13:18:38;95325.63;;;13.67;75.26
740;BME280;354;42.694;23.336;2023-04-08T13:21:04;95321.84;;;13.63;75.42
740;BME280;354;42.694;23.336;2023-04-08T13:23:29;95320.81;;;13.88;73.64
740;BME280;354;42.694;23.336;2023-04-08T13:25:54;95313.94;;;14.10;72.83
740;BME280;354;42.694;23.336;2023-04-08T13:28:20;95310.00;;;14.36;73.12
740;BME280;354;42.694;23.336;2023-04-08T13:30:45;95310.22;;;14.46;77.54
740;BME280;354;42.694;23.336;2023-04-08T13:33:11;95304.84;;;14.06;86.66
740;BME280;354;42.694;23.336;2023-04-08T13:35:36;95304.47;;;13.67;93.21
740;BME280;354;42.694;23.336;2023-04-08T13:38:02;95299.78;;;13.58;93.29
740;BME280;354;42.694;23.336;2023-04-08T13:40:27;95304.81;;;13.48;90.95
740;BME280;354;42.694;23.336;2023-04-08T13:42:53;95301.81;;;13.67;89.21